sensor_id;sensor_type;location;lat;lon;timestamp;pressure;altitude;pressure_sealevel;temperature;humidity
72359;BME280;60317;48.880;-0.862;2023-02-28T00:01:07;101538.63;;;20.52;26.46
72359;BME280;60317;48.880;-0.862;2023-02-28T00:03:34;101540.22;;;20.67;26.29
72359;BME280;60317;48.880;-0.862;2023-02-28T00:06:02;101539.78;;;20.73;26.29
72359;BME280;60317;48.880;-0.862;2023-02-28T00:08:28;101544.09;;;20.63;26.29
72359;BME280;60317;48.880;-0.862;2023-02-28T00:10:55;101536.38;;;20.71;26.25
72359;BME280;60317;48.880;-0.862;2023-02-28T00:13:21;101533.69;;;20.71;26.10
72359;BME280;60317;48.880;-0.862;2023-02-28T00:15:58;101535.88;;;20.90;25.93
72359;BME280;60317;48.880;-0.862;2023-02-28T00:18:26;101536.38;;;20.58;26.41
72359;BME280;60317;48.880;-0.862;2023-02-28T00:20:57;101535.72;;;20.55;26.41
72359;BME280;60317;48.880;-0.862;2023-02-28T00:23:24;101531.84;;;20.59;26.33
72359;BME280;60317;48.880;-0.862;2023-02-28T00:25:50;101533.47;;;20.61;26.24
72359;BME280;60317;48.880;-0.862;2023-02-28T00:28:17;101537.97;;;20.61;26.30
72359;BME280;60317;48.880;-0.862;2023-02-28T00:30:44;101531.97;;;20.57;26.27
72359;BME280;60317;48.880;-0.862;2023-02-28T00:33:11;101540.31;;;20.53;26.43
72359;BME280;60317;48.880;-0.862;2023-02-28T00:35:39;101540.66;;;20.61;26.33
72359;BME280;60317;48.880;-0.862;2023-02-28T00:38:05;101545.50;;;20.68;26.25
72359;BME280;60317;48.880;-0.862;2023-02-28T00:40:32;101534.97;;;20.65;26.21
72359;BME280;60317;48.880;-0.862;2023-02-28T00:42:58;101526.78;;;20.67;26.05
72359;BME280;60317;48.880;-0.862;2023-02-28T00:45:25;101532.28;;;20.65;26.35
72359;BME280;60317;48.880;-0.862;2023-02-28T00:47:52;101536.16;;;20.61;26.14
72359;BME280;60317;48.880;-0.862;2023-02-28T00:50:19;101535.06;;;20.51;26.33
72359;BME280;60317;48.880;-0.862;2023-02-28T00:52:47;101538.28;;;20.56;25.79
72359;BME280;60317;48.880;-0.862;2023-02-28T00:55:14;101534.97;;;20.65;26.02
72359;BME280;60317;48.880;-0.862;2023-02-28T00:57:41;101541.94;;;20.55;26.26
72359;BME280;60317;48.880;-0.862;2023-02-28T01:00:08;101545.81;;;20.51;26.33
72359;BME280;60317;48.880;-0.862;2023-02-28T01:02:35;101540.88;;;20.58;26.30
72359;BME280;60317;48.880;-0.862;2023-02-28T01:05:02;101543.88;;;20.66;26.31
72359;BME280;60317;48.880;-0.862;2023-02-28T01:07:29;101550.19;;;20.78;26.12
72359;BME280;60317;48.880;-0.862;2023-02-28T01:09:56;101546.97;;;20.85;26.13
72359;BME280;60317;48.880;-0.862;2023-02-28T01:12:23;101551.59;;;20.96;25.92
72359;BME280;60317;48.880;-0.862;2023-02-28T01:14:49;101555.41;;;21.05;25.67
72359;BME280;60317;48.880;-0.862;2023-02-28T01:17:16;101553.16;;;21.11;25.85
72359;BME280;60317;48.880;-0.862;2023-02-28T01:19:42;101556.69;;;21.12;25.67
72359;BME280;60317;48.880;-0.862;2023-02-28T01:22:09;101559.22;;;21.26;25.69
72359;BME280;60317;48.880;-0.862;2023-02-28T01:24:37;101558.38;;;21.26;25.57
72359;BME280;60317;48.880;-0.862;2023-02-28T01:48:11;101564.41;;;21.66;25.05
72359;BME280;60317;48.880;-0.862;2023-02-28T01:50:39;101557.03;;;21.68;25.00
72359;BME280;60317;48.880;-0.862;2023-02-28T01:53:10;101562.72;;;21.76;25.05
72359;BME280;60317;48.880;-0.862;2023-02-28T01:55:39;101565.69;;;21.84;24.84
72359;BME280;60317;48.880;-0.862;2023-02-28T01:58:08;101568.88;;;21.89;24.73
72359;BME280;60317;48.880;-0.862;2023-02-28T02:00:35;101567.31;;;21.87;25.05
72359;BME280;60317;48.880;-0.862;2023-02-28T02:03:06;101568.16;;;21.87;24.91
72359;BME280;60317;48.880;-0.862;2023-02-28T02:05:36;101569.72;;;21.90;24.79
72359;BME280;60317;48.880;-0.862;2023-02-28T02:08:05;101569.28;;;21.96;24.66
72359;BME280;60317;48.880;-0.862;2023-02-28T02:10:35;101568.41;;;21.96;24.59
72359;BME280;60317;48.880;-0.862;2023-02-28T02:13:10;101562.91;;;21.97;24.83
72359;BME280;60317;48.880;-0.862;2023-02-28T02:15:44;101559.38;;;21.97;24.79
72359;BME280;60317;48.880;-0.862;2023-02-28T02:18:25;101558.91;;;22.03;24.63
72359;BME280;60317;48.880;-0.862;2023-02-28T02:21:12;101565.38;;;22.00;24.70
72359;BME280;60317;48.880;-0.862;2023-02-28T02:23:53;101564.81;;;22.08;24.49
72359;BME280;60317;48.880;-0.862;2023-02-28T02:26:44;101562.97;;;22.08;24.58
72359;BME280;60317;48.880;-0.862;2023-02-28T02:32:18;101562.28;;;22.18;24.58
72359;BME280;60317;48.880;-0.862;2023-02-28T02:34:56;101564.00;;;22.19;24.38
72359;BME280;60317;48.880;-0.862;2023-02-28T02:37:35;101566.56;;;22.20;24.61
72359;BME280;60317;48.880;-0.862;2023-02-28T02:40:10;101562.28;;;22.18;24.46
72359;BME280;60317;48.880;-0.862;2023-02-28T02:42:45;101556.81;;;22.30;24.23
72359;BME280;60317;48.880;-0.862;2023-02-28T02:45:17;101557.50;;;22.21;24.32
72359;BME280;60317;48.880;-0.862;2023-02-28T02:47:45;101552.50;;;22.28;24.43
72359;BME280;60317;48.880;-0.862;2023-02-28T02:50:17;101552.75;;;22.25;24.34
72359;BME280;60317;48.880;-0.862;2023-02-28T02:52:49;101550.28;;;22.22;24.42
72359;BME280;60317;48.880;-0.862;2023-02-28T02:55:20;101541.50;;;22.31;24.28
72359;BME280;60317;48.880;-0.862;2023-02-28T02:57:51;101543.97;;;22.34;24.17
72359;BME280;60317;48.880;-0.862;2023-02-28T03:00:22;101552.19;;;22.32;24.29
72359;BME280;60317;48.880;-0.862;2023-02-28T03:02:52;101549.47;;;22.32;24.07
72359;BME280;60317;48.880;-0.862;2023-02-28T03:05:26;101549.47;;;22.32;24.11
72359;BME280;60317;48.880;-0.862;2023-02-28T03:07:52;101547.97;;;22.28;24.12
72359;BME280;60317;48.880;-0.862;2023-02-28T03:10:29;101549.47;;;22.32;24.21
72359;BME280;60317;48.880;-0.862;2023-02-28T03:13:05;101543.09;;;22.33;24.24
72359;BME280;60317;48.880;-0.862;2023-02-28T03:15:47;101541.63;;;22.29;24.18
72359;BME280;60317;48.880;-0.862;2023-02-28T03:18:24;101542.50;;;22.30;24.13
72359;BME280;60317;48.880;-0.862;2023-02-28T03:21:00;101538.94;;;22.41;24.16
72359;BME280;60317;48.880;-0.862;2023-02-28T03:23:35;101538.81;;;22.42;23.97
72359;BME280;60317;48.880;-0.862;2023-02-28T03:26:07;101543.88;;;22.58;23.72
72359;BME280;60317;48.880;-0.862;2023-02-28T03:28:42;101549.13;;;22.48;23.90
72359;BME280;60317;48.880;-0.862;2023-02-28T03:31:15;101551.44;;;22.53;23.86
72359;BME280;60317;48.880;-0.862;2023-02-28T03:33:47;101541.41;;;22.44;24.02
72359;BME280;60317;48.880;-0.862;2023-02-28T03:36:19;101542.25;;;22.44;23.93
72359;BME280;60317;48.880;-0.862;2023-02-28T03:38:49;101553.41;;;22.51;24.00
72359;BME280;60317;48.880;-0.862;2023-02-28T03:41:21;101548.63;;;22.43;23.97
72359;BME280;60317;48.880;-0.862;2023-02-28T03:43:52;101546.44;;;22.48;24.00
72359;BME280;60317;48.880;-0.862;2023-02-28T03:46:24;101542.50;;;22.41;23.89
72359;BME280;60317;48.880;-0.862;2023-02-28T03:48:56;101548.88;;;22.40;24.04
72359;BME280;60317;48.880;-0.862;2023-02-28T03:51:27;101548.03;;;22.51;23.74
72359;BME280;60317;48.880;-0.862;2023-02-28T03:53:58;101544.34;;;22.52;23.80
72359;BME280;60317;48.880;-0.862;2023-02-28T03:56:29;101546.28;;;22.50;23.64
72359;BME280;60317;48.880;-0.862;2023-02-28T03:59:01;101551.69;;;22.50;23.80
72359;BME280;60317;48.880;-0.862;2023-02-28T04:01:35;101557.44;;;22.56;23.83
72359;BME280;60317;48.880;-0.862;2023-02-28T04:04:02;101555.75;;;22.55;23.80
72359;BME280;60317;48.880;-0.862;2023-02-28T04:06:32;101557.34;;;22.58;23.67
72359;BME280;60317;48.880;-0.862;2023-02-28T04:08:59;101556.97;;;22.62;23.80
72359;BME280;60317;48.880;-0.862;2023-02-28T04:11:30;101560.66;;;22.50;23.71
72359;BME280;60317;48.880;-0.862;2023-02-28T04:13:58;101551.81;;;22.59;23.71
72359;BME280;60317;48.880;-0.862;2023-02-28T04:16:25;101562.97;;;22.55;23.66
72359;BME280;60317;48.880;-0.862;2023-02-28T04:19:02;101565.66;;;22.55;23.66
72359;BME280;60317;48.880;-0.862;2023-02-28T04:21:28;101569.06;;;22.57;23.74
72359;BME280;60317;48.880;-0.862;2023-02-28T04:23:57;101570.81;;;22.58;23.80
72359;BME280;60317;48.880;-0.862;2023-02-28T04:26:24;101573.13;;;22.62;23.53
72359;BME280;60317;48.880;-0.862;2023-02-28T04:28:50;101577.28;;;22.55;23.67
72359;BME280;60317;48.880;-0.862;2023-02-28T04:31:17;101578.28;;;22.54;23.73
72359;BME280;60317;48.880;-0.862;2023-02-28T04:33:43;101573.50;;;22.58;23.75
72359;BME280;60317;48.880;-0.862;2023-02-28T04:36:10;101572.03;;;22.65;23.77
72359;BME280;60317;48.880;-0.862;2023-02-28T04:38:38;101573.28;;;22.61;23.60
72359;BME280;60317;48.880;-0.862;2023-02-28T04:41:06;101574.84;;;22.63;23.52
72359;BME280;60317;48.880;-0.862;2023-02-28T04:43:33;101565.91;;;22.63;23.57
72359;BME280;60317;48.880;-0.862;2023-02-28T04:46:02;101571.06;;;22.55;23.78
72359;BME280;60317;48.880;-0.862;2023-02-28T04:48:31;101571.28;;;22.63;23.55
72359;BME280;60317;48.880;-0.862;2023-02-28T04:51:00;101574.47;;;22.57;23.74
72359;BME280;60317;48.880;-0.862;2023-02-28T04:53:27;101571.06;;;22.55;23.85
72359;BME280;60317;48.880;-0.862;2023-02-28T04:55:54;101569.97;;;22.57;23.68
72359;BME280;60317;48.880;-0.862;2023-02-28T04:58:22;101574.22;;;22.60;23.64
72359;BME280;60317;48.880;-0.862;2023-02-28T05:00:48;101572.41;;;22.60;23.71
72359;BME280;60317;48.880;-0.862;2023-02-28T05:03:15;101570.81;;;22.58;23.55
72359;BME280;60317;48.880;-0.862;2023-02-28T05:05:42;101571.06;;;22.66;23.57
72359;BME280;60317;48.880;-0.862;2023-02-28T05:08:08;101577.53;;;22.63;23.65
72359;BME280;60317;48.880;-0.862;2023-02-28T05:10:35;101582.69;;;22.67;23.39
72359;BME280;60317;48.880;-0.862;2023-02-28T05:13:02;101577.81;;;22.72;23.36
72359;BME280;60317;48.880;-0.862;2023-02-28T05:15:30;101580.03;;;22.89;23.10
72359;BME280;60317;48.880;-0.862;2023-02-28T05:17:56;101579.66;;;22.71;23.54
72359;BME280;60317;48.880;-0.862;2023-02-28T05:20:23;101587.13;;;22.68;23.42
72359;BME280;60317;48.880;-0.862;2023-02-28T05:22:49;101590.66;;;22.68;23.45
72359;BME280;60317;48.880;-0.862;2023-02-28T05:25:19;101591.75;;;22.66;23.46
72359;BME280;60317;48.880;-0.862;2023-02-28T05:27:46;101594.59;;;22.75;23.23
72359;BME280;60317;48.880;-0.862;2023-02-28T05:30:13;101595.81;;;22.71;23.23
72359;BME280;60317;48.880;-0.862;2023-02-28T05:32:41;101591.63;;;22.67;23.52
72359;BME280;60317;48.880;-0.862;2023-02-28T05:35:09;101599.38;;;22.60;23.29
72359;BME280;60317;48.880;-0.862;2023-02-28T05:37:36;101590.66;;;22.68;23.36
72359;BME280;60317;48.880;-0.862;2023-02-28T05:40:04;101591.63;;;22.67;23.40
72359;BME280;60317;48.880;-0.862;2023-02-28T05:42:31;101587.47;;;22.63;23.53
72359;BME280;60317;48.880;-0.862;2023-02-28T05:44:58;101584.44;;;22.68;23.32
72359;BME280;60317;48.880;-0.862;2023-02-28T05:47:24;101584.06;;;22.72;23.32
72359;BME280;60317;48.880;-0.862;2023-02-28T05:49:52;101585.75;;;22.73;23.01
72359;BME280;60317;48.880;-0.862;2023-02-28T05:52:19;101590.16;;;22.74;23.12
72359;BME280;60317;48.880;-0.862;2023-02-28T05:54:46;101584.53;;;22.77;23.13
72359;BME280;60317;48.880;-0.862;2023-02-28T05:57:12;101584.28;;;22.69;23.22
72359;BME280;60317;48.880;-0.862;2023-02-28T05:59:49;101592.88;;;22.85;23.10
72359;BME280;60317;48.880;-0.862;2023-02-28T06:02:17;101595.16;;;21.62;24.51
72359;BME280;60317;48.880;-0.862;2023-02-28T06:04:44;101596.00;;;20.89;25.16
72359;BME280;60317;48.880;-0.862;2023-02-28T06:07:12;101595.34;;;20.60;25.17
72359;BME280;60317;48.880;-0.862;2023-02-28T06:09:39;101594.88;;;20.40;25.39
72359;BME280;60317;48.880;-0.862;2023-02-28T06:12:07;101600.44;;;20.37;25.54
72359;BME280;60317;48.880;-0.862;2023-02-28T06:14:34;101598.25;;;20.82;25.24
72359;BME280;60317;48.880;-0.862;2023-02-28T06:17:01;101605.13;;;20.99;31.81
72359;BME280;60317;48.880;-0.862;2023-02-28T06:19:28;101601.56;;;20.60;31.70
72359;BME280;60317;48.880;-0.862;2023-02-28T06:21:56;101604.72;;;20.27;36.04
72359;BME280;60317;48.880;-0.862;2023-02-28T06:24:25;101611.06;;;20.26;32.57
72359;BME280;60317;48.880;-0.862;2023-02-28T06:26:51;101610.00;;;20.41;31.53
72359;BME280;60317;48.880;-0.862;2023-02-28T06:29:18;101606.44;;;21.43;28.30
72359;BME280;60317;48.880;-0.862;2023-02-28T06:31:45;101614.31;;;21.94;27.31
72359;BME280;60317;48.880;-0.862;2023-02-28T06:34:12;101608.06;;;22.18;26.67
72359;BME280;60317;48.880;-0.862;2023-02-28T06:36:40;101605.53;;;22.27;26.46
72359;BME280;60317;48.880;-0.862;2023-02-28T06:39:07;101616.28;;;22.27;26.13
72359;BME280;60317;48.880;-0.862;2023-02-28T06:41:36;101624.41;;;22.38;25.70
72359;BME280;60317;48.880;-0.862;2023-02-28T06:44:19;101624.28;;;22.40;25.71
72359;BME280;60317;48.880;-0.862;2023-02-28T06:46:46;101629.31;;;22.45;25.58
72359;BME280;60317;48.880;-0.862;2023-02-28T06:49:13;101631.78;;;22.48;25.47
72359;BME280;60317;48.880;-0.862;2023-02-28T06:51:42;101637.03;;;22.49;25.21
72359;BME280;60317;48.880;-0.862;2023-02-28T06:54:09;101640.34;;;22.53;25.32
72359;BME280;60317;48.880;-0.862;2023-02-28T06:56:37;101649.41;;;22.52;25.01
72359;BME280;60317;48.880;-0.862;2023-02-28T06:59:04;101638.88;;;22.49;25.20
72359;BME280;60317;48.880;-0.862;2023-02-28T07:01:30;101654.34;;;22.58;25.00
72359;BME280;60317;48.880;-0.862;2023-02-28T07:03:58;101648.56;;;22.51;24.68
72359;BME280;60317;48.880;-0.862;2023-02-28T07:06:26;101652.13;;;22.52;24.76
72359;BME280;60317;48.880;-0.862;2023-02-28T07:08:53;101654.59;;;22.66;24.82
72359;BME280;60317;48.880;-0.862;2023-02-28T07:11:22;101661.56;;;22.57;24.50
72359;BME280;60317;48.880;-0.862;2023-02-28T07:13:50;101655.81;;;22.62;24.59
72359;BME280;60317;48.880;-0.862;2023-02-28T07:16:17;101666.75;;;22.83;25.41
72359;BME280;60317;48.880;-0.862;2023-02-28T07:18:44;101664.44;;;22.78;24.67
72359;BME280;60317;48.880;-0.862;2023-02-28T07:21:11;101673.25;;;22.80;24.87
72359;BME280;60317;48.880;-0.862;2023-02-28T07:23:38;101663.06;;;22.84;24.69
72359;BME280;60317;48.880;-0.862;2023-02-28T07:26:05;101673.75;;;22.85;24.91
72359;BME280;60317;48.880;-0.862;2023-02-28T07:28:33;101677.06;;;22.89;24.99
72359;BME280;60317;48.880;-0.862;2023-02-28T07:31:04;101676.09;;;22.90;25.08
72359;BME280;60317;48.880;-0.862;2023-02-28T07:33:32;101674.56;;;23.10;25.06
72359;BME280;60317;48.880;-0.862;2023-02-28T07:36:00;101680.56;;;23.14;25.54
72359;BME280;60317;48.880;-0.862;2023-02-28T07:38:27;101684.41;;;22.87;25.69
72359;BME280;60317;48.880;-0.862;2023-02-28T07:40:54;101680.69;;;21.07;23.77
72359;BME280;60317;48.880;-0.862;2023-02-28T07:43:20;101679.28;;;21.02;26.03
72359;BME280;60317;48.880;-0.862;2023-02-28T07:45:47;101683.13;;;22.09;24.77
72359;BME280;60317;48.880;-0.862;2023-02-28T07:48:15;101674.81;;;22.60;24.38
72359;BME280;60317;48.880;-0.862;2023-02-28T07:50:42;101679.00;;;22.87;24.15
72359;BME280;60317;48.880;-0.862;2023-02-28T07:53:08;101677.94;;;22.90;24.17
72359;BME280;60317;48.880;-0.862;2023-02-28T07:55:35;101682.78;;;22.84;24.15
72359;BME280;60317;48.880;-0.862;2023-02-28T07:58:01;101685.56;;;22.96;24.42
72359;BME280;60317;48.880;-0.862;2023-02-28T08:00:28;101682.13;;;22.94;24.49
72359;BME280;60317;48.880;-0.862;2023-02-28T08:02:55;101683.84;;;22.59;24.78
72359;BME280;60317;48.880;-0.862;2023-02-28T08:05:22;101684.59;;;22.97;24.67
72359;BME280;60317;48.880;-0.862;2023-02-28T08:08:14;101687.41;;;23.18;24.32
72359;BME280;60317;48.880;-0.862;2023-02-28T08:10:42;101684.84;;;23.27;24.30
72359;BME280;60317;48.880;-0.862;2023-02-28T08:13:09;101679.56;;;23.37;24.42
72359;BME280;60317;48.880;-0.862;2023-02-28T08:15:35;101679.56;;;23.37;24.54
72359;BME280;60317;48.880;-0.862;2023-02-28T08:18:02;101689.63;;;23.35;24.77
72359;BME280;60317;48.880;-0.862;2023-02-28T08:20:31;101695.28;;;23.21;24.94
72359;BME280;60317;48.880;-0.862;2023-02-28T08:22:57;101696.88;;;22.77;24.80
72359;BME280;60317;48.880;-0.862;2023-02-28T08:25:24;101694.28;;;22.99;24.98
72359;BME280;60317;48.880;-0.862;2023-02-28T08:27:52;101702.09;;;23.02;25.04
72359;BME280;60317;48.880;-0.862;2023-02-28T08:30:19;101688.50;;;23.38;25.37
72359;BME280;60317;48.880;-0.862;2023-02-28T08:32:46;101697.31;;;23.62;25.11
72359;BME280;60317;48.880;-0.862;2023-02-28T08:35:12;101699.28;;;23.60;25.13
72359;BME280;60317;48.880;-0.862;2023-02-28T08:37:40;101708.25;;;23.72;25.29
72359;BME280;60317;48.880;-0.862;2023-02-28T08:40:08;101701.78;;;23.52;25.41
72359;BME280;60317;48.880;-0.862;2023-02-28T08:42:35;101703.00;;;23.59;25.11
72359;BME280;60317;48.880;-0.862;2023-02-28T08:45:02;101703.72;;;23.50;25.62
72359;BME280;60317;48.880;-0.862;2023-02-28T08:47:29;101694.66;;;23.40;25.46
72359;BME280;60317;48.880;-0.862;2023-02-28T08:49:55;101695.00;;;23.57;25.32
72359;BME280;60317;48.880;-0.862;2023-02-28T08:52:22;101704.09;;;23.45;25.52
72359;BME280;60317;48.880;-0.862;2023-02-28T08:54:50;101703.84;;;23.48;25.54
72359;BME280;60317;48.880;-0.862;2023-02-28T08:57:17;101704.72;;;23.49;25.66
72359;BME280;60317;48.880;-0.862;2023-02-28T08:59:43;101701.50;;;23.55;25.68
72359;BME280;60317;48.880;-0.862;2023-02-28T09:02:12;101698.56;;;23.58;25.69
72359;BME280;60317;48.880;-0.862;2023-02-28T09:04:38;101696.38;;;23.52;25.90
72359;BME280;60317;48.880;-0.862;2023-02-28T09:07:05;101685.81;;;23.60;26.27
72359;BME280;60317;48.880;-0.862;2023-02-28T09:09:31;101690.00;;;23.42;26.18
72359;BME280;60317;48.880;-0.862;2023-02-28T09:11:59;101698.81;;;23.44;26.07
72359;BME280;60317;48.880;-0.862;2023-02-28T09:14:26;101690.47;;;23.36;26.67
72359;BME280;60317;48.880;-0.862;2023-02-28T09:16:53;101692.94;;;23.39;26.44
72359;BME280;60317;48.880;-0.862;2023-02-28T09:19:19;101698.56;;;23.47;26.87
72359;BME280;60317;48.880;-0.862;2023-02-28T09:21:46;101696.22;;;22.97;27.26
72359;BME280;60317;48.880;-0.862;2023-02-28T09:24:13;101684.09;;;23.14;26.60
72359;BME280;60317;48.880;-0.862;2023-02-28T09:26:40;101694.50;;;22.96;26.64
72359;BME280;60317;48.880;-0.862;2023-02-28T09:29:14;101690.97;;;23.07;25.82
72359;BME280;60317;48.880;-0.862;2023-02-28T09:31:41;101695.81;;;22.91;25.77
72359;BME280;60317;48.880;-0.862;2023-02-28T09:34:08;101693.03;;;22.57;25.19
72359;BME280;60317;48.880;-0.862;2023-02-28T09:36:35;101691.88;;;22.37;24.84
72359;BME280;60317;48.880;-0.862;2023-02-28T09:39:11;101688.81;;;22.42;24.42
72359;BME280;60317;48.880;-0.862;2023-02-28T09:41:41;101689.06;;;22.14;24.53
72359;BME280;60317;48.880;-0.862;2023-02-28T09:44:15;101679.66;;;22.20;23.94
72359;BME280;60317;48.880;-0.862;2023-02-28T09:46:48;101682.28;;;22.09;23.87
72359;BME280;60317;48.880;-0.862;2023-02-28T09:49:17;101679.47;;;22.10;23.53
72359;BME280;60317;48.880;-0.862;2023-02-28T09:51:50;101694.66;;;21.87;24.48
72359;BME280;60317;48.880;-0.862;2023-02-28T09:54:19;101690.13;;;21.88;24.07
72359;BME280;60317;48.880;-0.862;2023-02-28T09:56:49;101682.88;;;22.01;23.64
72359;BME280;60317;48.880;-0.862;2023-02-28T09:59:28;101688.84;;;21.81;24.17
72359;BME280;60317;48.880;-0.862;2023-02-28T10:02:13;101681.22;;;21.75;24.21
72359;BME280;60317;48.880;-0.862;2023-02-28T10:04:47;101690.84;;;21.66;24.17
72359;BME280;60317;48.880;-0.862;2023-02-28T10:07:37;101683.56;;;21.55;24.38
72359;BME280;60317;48.880;-0.862;2023-02-28T10:10:17;101679.38;;;21.38;24.34
72359;BME280;60317;48.880;-0.862;2023-02-28T10:12:46;101673.81;;;21.65;24.30
72359;BME280;60317;48.880;-0.862;2023-02-28T10:15:16;101677.88;;;22.08;23.63
72359;BME280;60317;48.880;-0.862;2023-02-28T10:17:45;101678.38;;;21.89;24.15
72359;BME280;60317;48.880;-0.862;2023-02-28T10:20:37;101671.00;;;21.80;24.20
72359;BME280;60317;48.880;-0.862;2023-02-28T10:23:10;101683.19;;;21.97;23.94
72359;BME280;60317;48.880;-0.862;2023-02-28T10:25:39;101681.34;;;21.73;24.18
72359;BME280;60317;48.880;-0.862;2023-02-28T10:28:10;101675.84;;;21.75;24.05
72359;BME280;60317;48.880;-0.862;2023-02-28T10:30:42;101674.56;;;22.04;24.27
72359;BME280;60317;48.880;-0.862;2023-02-28T10:33:18;101679.25;;;22.37;24.10
72359;BME280;60317;48.880;-0.862;2023-02-28T10:35:45;101674.25;;;22.44;24.15
72359;BME280;60317;48.880;-0.862;2023-02-28T10:38:16;101675.91;;;22.58;24.17
72359;BME280;60317;48.880;-0.862;2023-02-28T10:40:43;101670.59;;;22.56;24.31
72359;BME280;60317;48.880;-0.862;2023-02-28T10:43:19;101665.28;;;22.68;24.33
72359;BME280;60317;48.880;-0.862;2023-02-28T10:45:57;101669.16;;;22.63;24.53
72359;BME280;60317;48.880;-0.862;2023-02-28T10:48:30;101666.63;;;22.84;24.21
72359;BME280;60317;48.880;-0.862;2023-02-28T10:50:58;101662.03;;;22.51;24.42
72359;BME280;60317;48.880;-0.862;2023-02-28T10:53:31;101658.34;;;22.52;24.58
72359;BME280;60317;48.880;-0.862;2023-02-28T10:56:15;101658.91;;;22.33;24.75
72359;BME280;60317;48.880;-0.862;2023-02-28T10:58:48;101650.94;;;22.32;24.42
72359;BME280;60317;48.880;-0.862;2023-02-28T11:01:18;101645.69;;;22.06;23.79
72359;BME280;60317;48.880;-0.862;2023-02-28T11:03:45;101650.59;;;22.12;23.55
72359;BME280;60317;48.880;-0.862;2023-02-28T11:06:16;101646.59;;;22.18;24.59
72359;BME280;60317;48.880;-0.862;2023-02-28T11:08:46;101640.31;;;22.42;24.07
72359;BME280;60317;48.880;-0.862;2023-02-28T11:11:13;101644.78;;;22.54;23.69
72359;BME280;60317;48.880;-0.862;2023-02-28T11:13:40;101654.59;;;22.66;23.45
72359;BME280;60317;48.880;-0.862;2023-02-28T11:16:09;101646.13;;;22.59;23.64
72359;BME280;60317;48.880;-0.862;2023-02-28T11:18:42;101646.25;;;22.58;23.80
72359;BME280;60317;48.880;-0.862;2023-02-28T11:21:15;101643.34;;;22.61;23.78
72359;BME280;60317;48.880;-0.862;2023-02-28T11:23:43;101643.19;;;22.62;24.01
72359;BME280;60317;48.880;-0.862;2023-02-28T11:26:09;101647.88;;;22.60;23.89
72359;BME280;60317;48.880;-0.862;2023-02-28T11:28:38;101632.56;;;22.72;23.79
72359;BME280;60317;48.880;-0.862;2023-02-28T11:31:15;101647.03;;;22.71;23.74
72359;BME280;60317;48.880;-0.862;2023-02-28T11:33:50;101645.53;;;22.67;23.77
72359;BME280;60317;48.880;-0.862;2023-02-28T11:36:19;101643.56;;;22.58;23.96
72359;BME280;60317;48.880;-0.862;2023-02-28T11:38:48;101651.69;;;22.80;23.91
72359;BME280;60317;48.880;-0.862;2023-02-28T11:43:58;101634.28;;;22.73;24.32
72359;BME280;60317;48.880;-0.862;2023-02-28T11:46:34;101634.84;;;22.43;24.75
72359;BME280;60317;48.880;-0.862;2023-02-28T11:49:07;101640.41;;;22.64;24.63
72359;BME280;60317;48.880;-0.862;2023-02-28T11:51:47;101630.47;;;22.76;24.78
72359;BME280;60317;48.880;-0.862;2023-02-28T11:54:27;101628.41;;;22.79;24.99
72359;BME280;60317;48.880;-0.862;2023-02-28T11:57:00;101631.25;;;22.89;24.88
72359;BME280;60317;48.880;-0.862;2023-02-28T11:59:36;101633.47;;;22.95;25.26
72359;BME280;60317;48.880;-0.862;2023-02-28T12:02:20;101615.84;;;22.09;24.60
72359;BME280;60317;48.880;-0.862;2023-02-28T12:04:58;101615.22;;;20.95;24.76
72359;BME280;60317;48.880;-0.862;2023-02-28T12:07:31;101615.09;;;20.59;25.41
72359;BME280;60317;48.880;-0.862;2023-02-28T12:10:06;101617.16;;;20.15;25.81
72359;BME280;60317;48.880;-0.862;2023-02-28T12:12:46;101603.44;;;20.20;25.71
72359;BME280;60317;48.880;-0.862;2023-02-28T12:15:29;101606.88;;;20.22;25.85
72359;BME280;60317;48.880;-0.862;2023-02-28T12:18:12;101588.69;;;20.13;26.36
72359;BME280;60317;48.880;-0.862;2023-02-28T12:20:49;101600.34;;;20.26;26.53
72359;BME280;60317;48.880;-0.862;2023-02-28T12:23:32;101594.91;;;20.66;26.16
72359;BME280;60317;48.880;-0.862;2023-02-28T12:26:12;101582.75;;;20.60;26.41
72359;BME280;60317;48.880;-0.862;2023-02-28T12:28:44;101584.25;;;20.77;26.29
72359;BME280;60317;48.880;-0.862;2023-02-28T12:31:18;101576.47;;;21.11;26.44
72359;BME280;60317;48.880;-0.862;2023-02-28T12:33:47;101578.13;;;21.01;26.22
72359;BME280;60317;48.880;-0.862;2023-02-28T12:36:18;101571.38;;;20.57;26.31
72359;BME280;60317;48.880;-0.862;2023-02-28T12:38:48;101568.81;;;20.55;26.30
72359;BME280;60317;48.880;-0.862;2023-02-28T12:41:18;101574.91;;;20.70;26.05
72359;BME280;60317;48.880;-0.862;2023-02-28T12:43:48;101564.72;;;20.62;26.28
72359;BME280;60317;48.880;-0.862;2023-02-28T12:46:21;101562.84;;;21.01;25.90
72359;BME280;60317;48.880;-0.862;2023-02-28T12:48:52;101561.91;;;20.77;26.45
72359;BME280;60317;48.880;-0.862;2023-02-28T12:51:24;101559.00;;;20.67;26.73
72359;BME280;60317;48.880;-0.862;2023-02-28T12:53:58;101564.03;;;20.84;26.34
72359;BME280;60317;48.880;-0.862;2023-02-28T12:56:36;101555.91;;;20.73;26.77
72359;BME280;60317;48.880;-0.862;2023-02-28T12:59:12;101551.41;;;20.61;27.05
72359;BME280;60317;48.880;-0.862;2023-02-28T13:05:01;101546.50;;;20.91;27.42
72359;BME280;60317;48.880;-0.862;2023-02-28T13:07:58;101546.28;;;20.94;27.48
72359;BME280;60317;48.880;-0.862;2023-02-28T13:10:38;101545.91;;;20.62;27.80
72359;BME280;60317;48.880;-0.862;2023-02-28T13:13:06;101551.03;;;21.04;27.38
72359;BME280;60317;48.880;-0.862;2023-02-28T13:15:33;101533.47;;;21.11;27.73
72359;BME280;60317;48.880;-0.862;2023-02-28T13:18:00;101532.91;;;20.82;28.02
72359;BME280;60317;48.880;-0.862;2023-02-28T13:20:35;101531.91;;;20.95;28.14
72359;BME280;60317;48.880;-0.862;2023-02-28T13:23:35;101533.97;;;20.79;29.05
72359;BME280;60317;48.880;-0.862;2023-02-28T13:26:03;101529.78;;;20.75;29.78